sensor_id;sensor_type;location;lat;lon;timestamp;P1;durP1;ratioP1;P2;durP2;ratioP2
29218;SDS011;16421;50.202;7.852;2024-01-11T00:02:46;24.45;;;11.48;;
29218;SDS011;16421;50.202;7.852;2024-01-11T00:07:49;22.67;;;11.93;;
29218;SDS011;16421;50.202;7.852;2024-01-11T00:12:52;21.20;;;10.82;;
29218;SDS011;16421;50.202;7.852;2024-01-11T00:17:57;24.33;;;10.65;;
29218;SDS011;16421;50.202;7.852;2024-01-11T00:28:05;17.65;;;9.50;;
29218;SDS011;16421;50.202;7.852;2024-01-11T00:33:09;23.33;;;10.73;;
29218;SDS011;16421;50.202;7.852;2024-01-11T00:38:13;24.60;;;12.13;;
29218;SDS011;16421;50.202;7.852;2024-01-11T00:43:16;21.50;;;12.50;;
29218;SDS011;16421;50.202;7.852;2024-01-11T00:48:21;24.55;;;10.90;;
29218;SDS011;16421;50.202;7.852;2024-01-11T00:53:24;26.33;;;11.20;;
29218;SDS011;16421;50.202;7.852;2024-01-11T00:58:31;21.67;;;10.70;;
29218;SDS011;16421;50.202;7.852;2024-01-11T01:03:36;22.40;;;10.88;;
29218;SDS011;16421;50.202;7.852;2024-01-11T01:08:39;20.40;;;9.25;;
29218;SDS011;16421;50.202;7.852;2024-01-11T01:13:42;21.45;;;10.63;;
29218;SDS011;16421;50.202;7.852;2024-01-11T01:18:47;22.25;;;10.52;;
29218;SDS011;16421;50.202;7.852;2024-01-11T01:23:50;21.55;;;11.07;;
29218;SDS011;16421;50.202;7.852;2024-01-11T01:28:53;26.50;;;11.98;;
29218;SDS011;16421;50.202;7.852;2024-01-11T01:33:58;19.67;;;9.82;;
29218;SDS011;16421;50.202;7.852;2024-01-11T01:39:01;18.42;;;9.35;;
29218;SDS011;16421;50.202;7.852;2024-01-11T01:44:05;26.63;;;11.15;;
29218;SDS011;16421;50.202;7.852;2024-01-11T01:49:09;20.95;;;10.48;;
29218;SDS011;16421;50.202;7.852;2024-01-11T01:54:13;20.23;;;10.32;;
29218;SDS011;16421;50.202;7.852;2024-01-11T01:59:17;20.13;;;10.18;;
29218;SDS011;16421;50.202;7.852;2024-01-11T02:04:23;18.10;;;8.82;;
29218;SDS011;16421;50.202;7.852;2024-01-11T02:09:26;21.33;;;9.73;;
29218;SDS011;16421;50.202;7.852;2024-01-11T02:14:32;21.58;;;9.73;;
29218;SDS011;16421;50.202;7.852;2024-01-11T02:19:36;19.08;;;9.68;;
29218;SDS011;16421;50.202;7.852;2024-01-11T02:24:41;18.80;;;9.05;;
29218;SDS011;16421;50.202;7.852;2024-01-11T02:29:44;20.00;;;8.90;;
29218;SDS011;16421;50.202;7.852;2024-01-11T02:34:47;20.40;;;9.65;;
29218;SDS011;16421;50.202;7.852;2024-01-11T02:39:52;14.93;;;8.27;;
29218;SDS011;16421;50.202;7.852;2024-01-11T02:44:56;19.52;;;9.35;;
29218;SDS011;16421;50.202;7.852;2024-01-11T02:49:59;16.95;;;9.20;;
29218;SDS011;16421;50.202;7.852;2024-01-11T02:55:04;18.42;;;9.13;;
29218;SDS011;16421;50.202;7.852;2024-01-11T03:00:08;20.88;;;8.93;;
29218;SDS011;16421;50.202;7.852;2024-01-11T03:05:12;20.30;;;9.30;;
29218;SDS011;16421;50.202;7.852;2024-01-11T03:10:17;18.20;;;9.10;;
29218;SDS011;16421;50.202;7.852;2024-01-11T03:15:20;17.13;;;8.95;;
29218;SDS011;16421;50.202;7.852;2024-01-11T03:20:23;18.13;;;8.10;;
29218;SDS011;16421;50.202;7.852;2024-01-11T03:25:28;17.45;;;8.68;;
29218;SDS011;16421;50.202;7.852;2024-01-11T03:30:32;20.05;;;8.88;;
29218;SDS011;16421;50.202;7.852;2024-01-11T03:35:35;15.07;;;7.68;;
29218;SDS011;16421;50.202;7.852;2024-01-11T03:40:41;16.00;;;7.80;;
29218;SDS011;16421;50.202;7.852;2024-01-11T03:45:44;14.73;;;7.18;;
29218;SDS011;16421;50.202;7.852;2024-01-11T03:50:47;16.25;;;8.50;;
29218;SDS011;16421;50.202;7.852;2024-01-11T03:55:52;16.92;;;8.60;;
29218;SDS011;16421;50.202;7.852;2024-01-11T04:00:55;20.08;;;8.98;;
29218;SDS011;16421;50.202;7.852;2024-01-11T04:05:59;19.08;;;8.40;;
29218;SDS011;16421;50.202;7.852;2024-01-11T04:11:03;15.35;;;8.25;;
29218;SDS011;16421;50.202;7.852;2024-01-11T04:16:07;17.42;;;8.75;;
29218;SDS011;16421;50.202;7.852;2024-01-11T04:21:19;23.65;;;11.07;;
29218;SDS011;16421;50.202;7.852;2024-01-11T04:26:25;19.77;;;9.85;;
29218;SDS011;16421;50.202;7.852;2024-01-11T04:31:28;19.38;;;9.65;;
29218;SDS011;16421;50.202;7.852;2024-01-11T04:36:31;22.17;;;10.23;;
29218;SDS011;16421;50.202;7.852;2024-01-11T04:41:36;23.15;;;10.38;;
29218;SDS011;16421;50.202;7.852;2024-01-11T04:46:40;19.13;;;9.70;;
29218;SDS011;16421;50.202;7.852;2024-01-11T04:51:43;21.77;;;9.82;;
29218;SDS011;16421;50.202;7.852;2024-01-11T04:56:48;21.58;;;9.98;;
29218;SDS011;16421;50.202;7.852;2024-01-11T05:01:51;23.27;;;10.55;;
29218;SDS011;16421;50.202;7.852;2024-01-11T05:06:54;21.25;;;10.23;;
29218;SDS011;16421;50.202;7.852;2024-01-11T05:11:59;19.77;;;10.20;;
29218;SDS011;16421;50.202;7.852;2024-01-11T05:17:02;22.67;;;11.07;;
29218;SDS011;16421;50.202;7.852;2024-01-11T05:22:07;24.55;;;11.38;;
29218;SDS011;16421;50.202;7.852;2024-01-11T05:27:11;24.95;;;10.80;;
29218;SDS011;16421;50.202;7.852;2024-01-11T05:32:14;22.65;;;11.10;;
29218;SDS011;16421;50.202;7.852;2024-01-11T05:37:18;25.52;;;10.38;;
29218;SDS011;16421;50.202;7.852;2024-01-11T05:42:23;22.27;;;10.55;;
29218;SDS011;16421;50.202;7.852;2024-01-11T05:47:27;22.30;;;10.23;;
29218;SDS011;16421;50.202;7.852;2024-01-11T05:52:30;19.17;;;9.50;;
29218;SDS011;16421;50.202;7.852;2024-01-11T05:57:35;25.08;;;11.80;;
29218;SDS011;16421;50.202;7.852;2024-01-11T06:02:38;19.67;;;9.90;;
29218;SDS011;16421;50.202;7.852;2024-01-11T06:07:41;21.08;;;10.13;;
29218;SDS011;16421;50.202;7.852;2024-01-11T06:12:46;22.13;;;10.32;;
29218;SDS011;16421;50.202;7.852;2024-01-11T06:17:49;19.10;;;10.25;;
29218;SDS011;16421;50.202;7.852;2024-01-11T06:22:53;23.17;;;11.00;;
29218;SDS011;16421;50.202;7.852;2024-01-11T06:27:57;22.35;;;10.60;;
29218;SDS011;16421;50.202;7.852;2024-01-11T06:33:00;24.25;;;10.63;;
29218;SDS011;16421;50.202;7.852;2024-01-11T06:38:04;23.92;;;11.40;;
29218;SDS011;16421;50.202;7.852;2024-01-11T06:43:10;21.70;;;10.02;;
29218;SDS011;16421;50.202;7.852;2024-01-11T06:48:13;26.70;;;11.93;;
29218;SDS011;16421;50.202;7.852;2024-01-11T06:53:17;25.67;;;12.18;;
29218;SDS011;16421;50.202;7.852;2024-01-11T06:58:22;34.33;;;14.32;;
29218;SDS011;16421;50.202;7.852;2024-01-11T07:03:25;36.70;;;17.70;;
29218;SDS011;16421;50.202;7.852;2024-01-11T07:08:29;47.55;;;21.45;;
29218;SDS011;16421;50.202;7.852;2024-01-11T07:13:35;41.97;;;18.33;;
29218;SDS011;16421;50.202;7.852;2024-01-11T07:18:38;29.70;;;14.60;;
29218;SDS011;16421;50.202;7.852;2024-01-11T07:23:41;31.17;;;14.40;;
29218;SDS011;16421;50.202;7.852;2024-01-11T07:28:46;31.67;;;15.18;;
29218;SDS011;16421;50.202;7.852;2024-01-11T07:33:50;30.55;;;14.32;;
29218;SDS011;16421;50.202;7.852;2024-01-11T07:38:53;31.58;;;14.73;;
29218;SDS011;16421;50.202;7.852;2024-01-11T07:43:57;30.17;;;14.57;;
29218;SDS011;16421;50.202;7.852;2024-01-11T07:49:01;28.90;;;13.60;;
29218;SDS011;16421;50.202;7.852;2024-01-11T07:54:05;26.52;;;13.40;;
29218;SDS011;16421;50.202;7.852;2024-01-11T07:59:09;28.13;;;13.27;;
29218;SDS011;16421;50.202;7.852;2024-01-11T08:04:15;23.98;;;12.02;;
29218;SDS011;16421;50.202;7.852;2024-01-11T08:09:19;26.73;;;11.77;;
29218;SDS011;16421;50.202;7.852;2024-01-11T08:14:24;26.15;;;11.80;;
29218;SDS011;16421;50.202;7.852;2024-01-11T08:19:28;31.47;;;13.43;;
29218;SDS011;16421;50.202;7.852;2024-01-11T08:24:31;30.05;;;15.02;;
29218;SDS011;16421;50.202;7.852;2024-01-11T08:29:37;37.28;;;17.42;;
29218;SDS011;16421;50.202;7.852;2024-01-11T08:34:42;32.08;;;16.00;;
29218;SDS011;16421;50.202;7.852;2024-01-11T08:39:45;28.23;;;13.95;;
29218;SDS011;16421;50.202;7.852;2024-01-11T08:44:49;28.42;;;12.43;;
29218;SDS011;16421;50.202;7.852;2024-01-11T08:49:53;25.70;;;12.30;;
29218;SDS011;16421;50.202;7.852;2024-01-11T08:54:57;27.92;;;13.05;;
29218;SDS011;16421;50.202;7.852;2024-01-11T09:00:01;23.42;;;11.68;;
29218;SDS011;16421;50.202;7.852;2024-01-11T09:05:07;24.95;;;12.68;;
29218;SDS011;16421;50.202;7.852;2024-01-11T09:10:10;23.40;;;12.38;;
29218;SDS011;16421;50.202;7.852;2024-01-11T09:15:16;25.70;;;11.88;;
29218;SDS011;16421;50.202;7.852;2024-01-11T09:20:19;28.48;;;12.77;;
29218;SDS011;16421;50.202;7.852;2024-01-11T09:25:22;24.63;;;11.05;;
29218;SDS011;16421;50.202;7.852;2024-01-11T09:30:27;23.63;;;11.32;;
29218;SDS011;16421;50.202;7.852;2024-01-11T09:35:30;24.23;;;11.98;;
29218;SDS011;16421;50.202;7.852;2024-01-11T09:40:33;33.40;;;16.88;;
29218;SDS011;16421;50.202;7.852;2024-01-11T09:45:38;31.60;;;14.88;;
29218;SDS011;16421;50.202;7.852;2024-01-11T09:50:42;36.73;;;16.50;;
29218;SDS011;16421;50.202;7.852;2024-01-11T09:55:45;35.45;;;17.38;;
29218;SDS011;16421;50.202;7.852;2024-01-11T10:00:50;42.78;;;18.58;;
29218;SDS011;16421;50.202;7.852;2024-01-11T10:05:59;28.83;;;13.73;;
29218;SDS011;16421;50.202;7.852;2024-01-11T10:11:04;26.10;;;12.60;;
29218;SDS011;16421;50.202;7.852;2024-01-11T10:16:09;34.95;;;17.08;;
29218;SDS011;16421;50.202;7.852;2024-01-11T10:21:14;36.40;;;18.83;;
29218;SDS011;16421;50.202;7.852;2024-01-11T10:26:18;29.08;;;15.20;;
29218;SDS011;16421;50.202;7.852;2024-01-11T10:31:24;25.90;;;12.98;;
29218;SDS011;16421;50.202;7.852;2024-01-11T10:36:30;45.35;;;22.95;;
29218;SDS011;16421;50.202;7.852;2024-01-11T10:41:36;26.40;;;14.90;;
29218;SDS011;16421;50.202;7.852;2024-01-11T10:46:44;44.10;;;21.08;;
29218;SDS011;16421;50.202;7.852;2024-01-11T10:51:49;27.92;;;15.30;;
29218;SDS011;16421;50.202;7.852;2024-01-11T10:56:58;31.33;;;13.90;;
29218;SDS011;16421;50.202;7.852;2024-01-11T11:02:04;24.08;;;12.77;;
29218;SDS011;16421;50.202;7.852;2024-01-11T11:07:11;29.33;;;14.88;;
29218;SDS011;16421;50.202;7.852;2024-01-11T11:12:16;41.78;;;20.48;;
29218;SDS011;16421;50.202;7.852;2024-01-11T11:17:21;34.35;;;16.85;;
29218;SDS011;16421;50.202;7.852;2024-01-11T11:22:26;32.88;;;16.13;;
29218;SDS011;16421;50.202;7.852;2024-01-11T11:27:37;27.65;;;13.85;;
29218;SDS011;16421;50.202;7.852;2024-01-11T11:32:42;28.58;;;15.43;;
29218;SDS011;16421;50.202;7.852;2024-01-11T11:37:48;30.17;;;15.48;;
29218;SDS011;16421;50.202;7.852;2024-01-11T11:42:56;31.33;;;15.82;;
29218;SDS011;16421;50.202;7.852;2024-01-11T11:48:00;31.80;;;16.90;;
29218;SDS011;16421;50.202;7.852;2024-01-11T11:53:03;24.63;;;12.98;;
29218;SDS011;16421;50.202;7.852;2024-01-11T11:58:08;22.27;;;12.30;;
29218;SDS011;16421;50.202;7.852;2024-01-11T12:03:15;24.80;;;11.73;;
29218;SDS011;16421;50.202;7.852;2024-01-11T12:08:20;28.70;;;15.38;;
29218;SDS011;16421;50.202;7.852;2024-01-11T12:13:28;29.30;;;15.25;;
29218;SDS011;16421;50.202;7.852;2024-01-11T12:18:32;35.27;;;18.30;;
29218;SDS011;16421;50.202;7.852;2024-01-11T12:23:36;40.17;;;20.35;;
29218;SDS011;16421;50.202;7.852;2024-01-11T12:28:42;39.43;;;19.33;;
29218;SDS011;16421;50.202;7.852;2024-01-11T12:33:45;33.13;;;17.42;;
29218;SDS011;16421;50.202;7.852;2024-01-11T12:38:50;29.45;;;15.65;;
29218;SDS011;16421;50.202;7.852;2024-01-11T12:43:55;33.90;;;17.48;;
29218;SDS011;16421;50.202;7.852;2024-01-11T12:48:59;30.92;;;16.85;;
29218;SDS011;16421;50.202;7.852;2024-01-11T12:54:02;26.88;;;13.07;;
29218;SDS011;16421;50.202;7.852;2024-01-11T12:59:08;26.45;;;14.05;;
29218;SDS011;16421;50.202;7.852;2024-01-11T13:04:12;29.10;;;15.48;;
29218;SDS011;16421;50.202;7.852;2024-01-11T13:09:15;35.20;;;16.40;;
29218;SDS011;16421;50.202;7.852;2024-01-11T13:14:20;24.35;;;11.95;;
29218;SDS011;16421;50.202;7.852;2024-01-11T13:19:24;22.90;;;12.10;;
29218;SDS011;16421;50.202;7.852;2024-01-11T13:24:27;25.65;;;13.43;;
29218;SDS011;16421;50.202;7.852;2024-01-11T13:29:32;25.80;;;13.80;;
29218;SDS011;16421;50.202;7.852;2024-01-11T13:34:35;29.25;;;14.63;;
29218;SDS011;16421;50.202;7.852;2024-01-11T13:39:38;31.15;;;15.65;;
29218;SDS011;16421;50.202;7.852;2024-01-11T13:44:44;24.45;;;13.32;;
29218;SDS011;16421;50.202;7.852;2024-01-11T13:49:47;20.15;;;9.93;;
29218;SDS011;16421;50.202;7.852;2024-01-11T13:54:50;27.00;;;13.45;;
29218;SDS011;16421;50.202;7.852;2024-01-11T13:59:55;26.42;;;14.10;;
29218;SDS011;16421;50.202;7.852;2024-01-11T14:04:58;20.73;;;11.60;;
29218;SDS011;16421;50.202;7.852;2024-01-11T14:10:02;28.77;;;14.55;;
29218;SDS011;16421;50.202;7.852;2024-01-11T14:15:08;26.00;;;13.32;;
29218;SDS011;16421;50.202;7.852;2024-01-11T14:20:13;27.42;;;13.93;;
29218;SDS011;16421;50.202;7.852;2024-01-11T14:25:17;25.25;;;14.73;;
29218;SDS011;16421;50.202;7.852;2024-01-11T14:30:23;28.42;;;13.80;;
29218;SDS011;16421;50.202;7.852;2024-01-11T14:35:26;37.40;;;18.85;;
29218;SDS011;16421;50.202;7.852;2024-01-11T14:40:29;24.63;;;14.05;;
29218;SDS011;16421;50.202;7.852;2024-01-11T14:45:34;25.95;;;14.00;;
29218;SDS011;16421;50.202;7.852;2024-01-11T14:50:37;20.75;;;11.43;;
29218;SDS011;16421;50.202;7.852;2024-01-11T14:55:40;28.75;;;14.77;;
29218;SDS011;16421;50.202;7.852;2024-01-11T15:00:46;30.05;;;14.75;;
29218;SDS011;16421;50.202;7.852;2024-01-11T15:05:50;29.02;;;15.48;;
29218;SDS011;16421;50.202;7.852;2024-01-11T15:10:54;29.58;;;15.13;;
29218;SDS011;16421;50.202;7.852;2024-01-11T15:15:58;23.17;;;13.48;;
29218;SDS011;16421;50.202;7.852;2024-01-11T15:21:02;26.77;;;14.18;;
29218;SDS011;16421;50.202;7.852;2024-01-11T15:26:06;25.13;;;13.35;;
29218;SDS011;16421;50.202;7.852;2024-01-11T15:31:11;18.20;;;10.30;;
29218;SDS011;16421;50.202;7.852;2024-01-11T15:36:15;22.60;;;12.43;;
29218;SDS011;16421;50.202;7.852;2024-01-11T15:41:18;21.52;;;10.60;;
29218;SDS011;16421;50.202;7.852;2024-01-11T15:46:23;20.23;;;10.85;;
29218;SDS011;16421;50.202;7.852;2024-01-11T15:51:27;17.75;;;9.90;;
29218;SDS011;16421;50.202;7.852;2024-01-11T15:56:31;16.40;;;9.38;;
29218;SDS011;16421;50.202;7.852;2024-01-11T16:01:35;15.52;;;8.88;;
29218;SDS011;16421;50.202;7.852;2024-01-11T16:06:43;19.77;;;10.15;;
29218;SDS011;16421;50.202;7.852;2024-01-11T16:11:46;21.10;;;10.93;;
29218;SDS011;16421;50.202;7.852;2024-01-11T16:16:51;16.00;;;9.20;;
29218;SDS011;16421;50.202;7.852;2024-01-11T16:21:54;20.27;;;10.65;;
29218;SDS011;16421;50.202;7.852;2024-01-11T16:26:57;19.00;;;10.43;;
29218;SDS011;16421;50.202;7.852;2024-01-11T16:32:02;20.88;;;11.30;;
29218;SDS011;16421;50.202;7.852;2024-01-11T16:37:07;19.13;;;11.18;;
29218;SDS011;16421;50.202;7.852;2024-01-11T16:42:10;23.65;;;11.43;;
29218;SDS011;16421;50.202;7.852;2024-01-11T16:47:15;19.58;;;10.93;;
29218;SDS011;16421;50.202;7.852;2024-01-11T16:52:18;18.45;;;10.70;;
29218;SDS011;16421;50.202;7.852;2024-01-11T16:57:22;18.15;;;9.55;;
29218;SDS011;16421;50.202;7.852;2024-01-11T17:02:27;19.10;;;10.20;;
29218;SDS011;16421;50.202;7.852;2024-01-11T17:07:31;16.08;;;9.85;;
29218;SDS011;16421;50.202;7.852;2024-01-11T17:12:34;22.08;;;11.63;;
29218;SDS011;16421;50.202;7.852;2024-01-11T17:17:39;20.20;;;10.48;;
29218;SDS011;16421;50.202;7.852;2024-01-11T17:22:43;18.23;;;10.07;;
29218;SDS011;16421;50.202;7.852;2024-01-11T17:27:46;21.27;;;10.25;;
29218;SDS011;16421;50.202;7.852;2024-01-11T17:32:51;20.13;;;10.18;;
29218;SDS011;16421;50.202;7.852;2024-01-11T17:37:56;21.48;;;10.50;;
29218;SDS011;16421;50.202;7.852;2024-01-11T17:42:59;20.75;;;10.73;;
29218;SDS011;16421;50.202;7.852;2024-01-11T17:48:05;26.02;;;12.02;;
29218;SDS011;16421;50.202;7.852;2024-01-11T17:53:08;23.00;;;11.93;;
29218;SDS011;16421;50.202;7.852;2024-01-11T17:58:12;24.85;;;12.75;;
29218;SDS011;16421;50.202;7.852;2024-01-11T18:03:16;24.00;;;12.82;;
29218;SDS011;16421;50.202;7.852;2024-01-11T18:08:19;27.17;;;12.60;;
29218;SDS011;16421;50.202;7.852;2024-01-11T18:13:23;30.92;;;14.23;;
29218;SDS011;16421;50.202;7.852;2024-01-11T18:18:28;37.53;;;16.02;;
29218;SDS011;16421;50.202;7.852;2024-01-11T18:23:31;32.20;;;15.25;;
29218;SDS011;16421;50.202;7.852;2024-01-11T18:28:35;27.77;;;15.32;;
29218;SDS011;16421;50.202;7.852;2024-01-11T18:33:39;31.88;;;15.90;;
29218;SDS011;16421;50.202;7.852;2024-01-11T18:43:47;28.17;;;13.85;;
29218;SDS011;16421;50.202;7.852;2024-01-11T18:48:52;28.63;;;15.60;;
29218;SDS011;16421;50.202;7.852;2024-01-11T18:53:55;29.73;;;15.85;;
29218;SDS011;16421;50.202;7.852;2024-01-11T18:58:58;32.00;;;15.90;;
29218;SDS011;16421;50.202;7.852;2024-01-11T19:04:03;30.35;;;15.35;;
29218;SDS011;16421;50.202;7.852;2024-01-11T19:09:07;31.20;;;15.80;;
29218;SDS011;16421;50.202;7.852;2024-01-11T19:14:11;28.55;;;14.43;;
29218;SDS011;16421;50.202;7.852;2024-01-11T19:19:16;28.00;;;15.10;;
29218;SDS011;16421;50.202;7.852;2024-01-11T19:24:20;31.58;;;14.88;;
29218;SDS011;16421;50.202;7.852;2024-01-11T19:29:24;33.83;;;16.92;;
29218;SDS011;16421;50.202;7.852;2024-01-11T19:34:30;28.77;;;14.68;;
29218;SDS011;16421;50.202;7.852;2024-01-11T19:39:33;28.02;;;14.52;;
29218;SDS011;16421;50.202;7.852;2024-01-11T19:44:36;27.38;;;15.27;;
29218;SDS011;16421;50.202;7.852;2024-01-11T19:49:41;38.30;;;17.42;;
29218;SDS011;16421;50.202;7.852;2024-01-11T19:54:44;36.30;;;17.52;;
29218;SDS011;16421;50.202;7.852;2024-01-11T19:59:48;33.72;;;16.00;;
29218;SDS011;16421;50.202;7.852;2024-01-11T20:04:53;38.92;;;18.80;;
29218;SDS011;16421;50.202;7.852;2024-01-11T20:09:56;37.50;;;17.15;;
29218;SDS011;16421;50.202;7.852;2024-01-11T20:15:00;42.05;;;18.80;;
29218;SDS011;16421;50.202;7.852;2024-01-11T20:20:06;36.47;;;17.52;;
29218;SDS011;16421;50.202;7.852;2024-01-11T20:25:10;35.40;;;18.17;;
29218;SDS011;16421;50.202;7.852;2024-01-11T20:30:13;37.35;;;18.10;;
29218;SDS011;16421;50.202;7.852;2024-01-11T20:35:18;42.45;;;19.00;;
29218;SDS011;16421;50.202;7.852;2024-01-11T20:40:22;37.58;;;18.08;;
29218;SDS011;16421;50.202;7.852;2024-01-11T20:45:25;42.70;;;18.40;;
29218;SDS011;16421;50.202;7.852;2024-01-11T20:50:30;43.58;;;19.45;;
29218;SDS011;16421;50.202;7.852;2024-01-11T20:55:33;39.08;;;18.38;;
29218;SDS011;16421;50.202;7.852;2024-01-11T21:00:36;44.95;;;20.65;;
29218;SDS011;16421;50.202;7.852;2024-01-11T21:05:41;42.05;;;17.92;;
29218;SDS011;16421;50.202;7.852;2024-01-11T21:10:48;41.13;;;19.13;;
29218;SDS011;16421;50.202;7.852;2024-01-11T21:15:51;44.15;;;18.50;;
29218;SDS011;16421;50.202;7.852;2024-01-11T21:20:56;38.42;;;19.42;;
29218;SDS011;16421;50.202;7.852;2024-01-11T21:26:00;37.65;;;18.08;;
29218;SDS011;16421;50.202;7.852;2024-01-11T21:31:03;38.70;;;18.52;;
29218;SDS011;16421;50.202;7.852;2024-01-11T21:36:08;39.97;;;17.73;;
29218;SDS011;16421;50.202;7.852;2024-01-11T21:41:11;38.25;;;17.92;;
29218;SDS011;16421;50.202;7.852;2024-01-11T21:46:14;36.33;;;17.65;;
29218;SDS011;16421;50.202;7.852;2024-01-11T21:51:19;39.13;;;17.58;;
29218;SDS011;16421;50.202;7.852;2024-01-11T21:56:22;36.45;;;17.10;;
29218;SDS011;16421;50.202;7.852;2024-01-11T22:01:25;34.95;;;17.38;;
29218;SDS011;16421;50.202;7.852;2024-01-11T22:06:32;37.13;;;17.33;;
29218;SDS011;16421;50.202;7.852;2024-01-11T22:11:35;31.10;;;15.60;;
29218;SDS011;16421;50.202;7.852;2024-01-11T22:16:39;33.28;;;15.23;;
29218;SDS011;16421;50.202;7.852;2024-01-11T22:21:44;34.20;;;15.93;;
29218;SDS011;16421;50.202;7.852;2024-01-11T22:26:47;34.28;;;16.23;;
29218;SDS011;16421;50.202;7.852;2024-01-11T22:31:50;37.00;;;17.10;;
29218;SDS011;16421;50.202;7.852;2024-01-11T22:36:55;33.95;;;16.20;;
29218;SDS011;16421;50.202;7.852;2024-01-11T22:41:58;35.20;;;15.55;;
29218;SDS011;16421;50.202;7.852;2024-01-11T22:47:02;32.08;;;16.63;;
29218;SDS011;16421;50.202;7.852;2024-01-11T22:52:07;35.75;;;16.13;;
29218;SDS011;16421;50.202;7.852;2024-01-11T22:57:10;32.65;;;15.02;;
29218;SDS011;16421;50.202;7.852;2024-01-11T23:02:15;32.78;;;15.98;;
29218;SDS011;16421;50.202;7.852;2024-01-11T23:07:20;38.63;;;17.13;;
29218;SDS011;16421;50.202;7.852;2024-01-11T23:12:23;37.53;;;18.08;;
29218;SDS011;16421;50.202;7.852;2024-01-11T23:17:27;41.55;;;19.45;;
29218;SDS011;16421;50.202;7.852;2024-01-11T23:22:31;41.22;;;18.30;;
29218;SDS011;16421;50.202;7.852;2024-01-11T23:27:35;31.05;;;17.17;;
29218;SDS011;16421;50.202;7.852;2024-01-11T23:32:38;36.08;;;17.92;;
29218;SDS011;16421;50.202;7.852;2024-01-11T23:37:42;35.20;;;17.30;;
29218;SDS011;16421;50.202;7.852;2024-01-11T23:42:46;35.00;;;17.60;;
29218;SDS011;16421;50.202;7.852;2024-01-11T23:47:49;39.40;;;17.80;;
29218;SDS011;16421;50.202;7.852;2024-01-11T23:52:54;37.33;;;17.67;;
29218;SDS011;16421;50.202;7.852;2024-01-11T23:57:57;40.42;;;18.02;;
